地図

経路データ

SID SEASON NUMBER BASIN SUBBASIN NAME ISO_TIME NATURE LAT LON WMO_WIND WMO_PRES WMO_AGENCY TRACK_TYPE DIST2LAND LANDFALL IFLAG USA_AGENCY USA_ATCF_ID USA_LAT USA_LON USA_RECORD USA_STATUS USA_WIND USA_PRES USA_SSHS USA_R34_NE USA_R34_SE USA_R34_SW USA_R34_NW USA_R50_NE USA_R50_SE USA_R50_SW USA_R50_NW USA_R64_NE USA_R64_SE USA_R64_SW USA_R64_NW USA_POCI USA_ROCI USA_RMW USA_EYE TOKYO_LAT TOKYO_LON TOKYO_GRADE TOKYO_WIND TOKYO_PRES TOKYO_R50_DIR TOKYO_R50_LONG TOKYO_R50_SHORT TOKYO_R30_DIR TOKYO_R30_LONG TOKYO_R30_SHORT TOKYO_LAND CMA_LAT CMA_LON CMA_CAT CMA_WIND CMA_PRES HKO_LAT HKO_LON HKO_CAT HKO_WIND HKO_PRES NEWDELHI_LAT NEWDELHI_LON NEWDELHI_GRADE NEWDELHI_WIND NEWDELHI_PRES NEWDELHI_CI NEWDELHI_DP NEWDELHI_POCI REUNION_LAT REUNION_LON REUNION_TYPE REUNION_WIND REUNION_PRES REUNION_TNUM REUNION_CI REUNION_RMW REUNION_R34_NE REUNION_R34_SE REUNION_R34_SW REUNION_R34_NW REUNION_R50_NE REUNION_R50_SE REUNION_R50_SW REUNION_R50_NW REUNION_R64_NE REUNION_R64_SE REUNION_R64_SW REUNION_R64_NW BOM_LAT BOM_LON BOM_TYPE BOM_WIND BOM_PRES BOM_TNUM BOM_CI BOM_RMW BOM_R34_NE BOM_R34_SE BOM_R34_SW BOM_R34_NW BOM_R50_NE BOM_R50_SE BOM_R50_SW BOM_R50_NW BOM_R64_NE BOM_R64_SE BOM_R64_SW BOM_R64_NW BOM_ROCI BOM_POCI BOM_EYE BOM_POS_METHOD BOM_PRES_METHOD NADI_LAT NADI_LON NADI_CAT NADI_WIND NADI_PRES WELLINGTON_LAT WELLINGTON_LON WELLINGTON_WIND WELLINGTON_PRES DS824_LAT DS824_LON DS824_STAGE DS824_WIND DS824_PRES TD9636_LAT TD9636_LON TD9636_STAGE TD9636_WIND TD9636_PRES TD9635_LAT TD9635_LON TD9635_WIND TD9635_PRES TD9635_ROCI NEUMANN_LAT NEUMANN_LON NEUMANN_CLASS NEUMANN_WIND NEUMANN_PRES MLC_LAT MLC_LON MLC_CLASS MLC_WIND MLC_PRES USA_GUST BOM_GUST BOM_GUST_PER REUNION_GUST REUNION_GUST_PER USA_SEAHGT USA_SEARAD_NE USA_SEARAD_SE USA_SEARAD_SW USA_SEARAD_NW STORM_SPEED STORM_DIR
1994169N13240 1994 37 EP MM ALETTA 1994-06-18 06:00:00 TS 12.6000 -120.100 25 1009 hurdat_epa main 1571 1561 O_____________ hurdat_epa EP011994 12.6000 -120.100 TD 25 1009 -1 6 319
1994169N13240 1994 37 EP MM ALETTA 1994-06-18 09:00:00 TS 12.8200 -120.292 main 1568 1559 P_____________ EP011994 12.8200 -120.292 TD 27 1008 -1 6 316
1994169N13240 1994 37 EP MM ALETTA 1994-06-18 12:00:00 TS 13.0000 -120.500 30 1008 hurdat_epa main 1567 1566 O_____________ hurdat_epa EP011994 13.0000 -120.500 TD 30 1008 -1 5 304
1994169N13240 1994 37 EP MM ALETTA 1994-06-18 15:00:00 TS 13.1150 -120.735 main 1574 1573 P_____________ EP011994 13.1150 -120.735 TD 30 1008 -1 5 292
1994169N13240 1994 37 EP MM ALETTA 1994-06-18 18:00:00 TS 13.2000 -121.000 30 1008 hurdat_epa main 1589 1586 O_____________ hurdat_epa EP011994 13.2000 -121.000 TD 30 1008 -1 6 290
1994169N13240 1994 37 EP MM ALETTA 1994-06-18 21:00:00 TS 13.3074 -121.278 main 1599 1596 P_____________ EP011994 13.3074 -121.278 TD 30 1007 -1 6 289
1994169N13240 1994 37 EP MM ALETTA 1994-06-19 00:00:00 TS 13.4000 -121.600 30 1006 hurdat_epa main 1609 1609 O_____________ hurdat_epa EP011994 13.4000 -121.600 TD 30 1006 -1 7 282
1994169N13240 1994 37 EP MM ALETTA 1994-06-19 03:00:00 TS 13.4575 -121.993 main 1626 1626 P_____________ EP011994 13.4575 -121.993 TD 32 1005 -1 8 277
1994169N13240 1994 37 EP MM ALETTA 1994-06-19 06:00:00 TS 13.5000 -122.400 35 1005 hurdat_epa main 1653 1653 O_____________ hurdat_epa EP011994 13.5000 -122.400 TS 35 1005 0 8 277
1994169N13240 1994 37 EP MM ALETTA 1994-06-19 09:00:00 TS 13.5499 -122.765 main 1681 1673 P_____________ EP011994 13.5499 -122.765 TS 35 1004 0 7 278
1994169N13240 1994 37 EP MM ALETTA 1994-06-19 12:00:00 TS 13.6000 -123.100 35 1004 hurdat_epa main 1694 1694 O_____________ hurdat_epa EP011994 13.6000 -123.100 TS 35 1004 0 6 279
1994169N13240 1994 37 EP MM ALETTA 1994-06-19 15:00:00 TS 13.6500 -123.415 main 1715 1707 P_____________ EP011994 13.6500 -123.415 TS 37 1002 0 6 280
1994169N13240 1994 37 EP MM ALETTA 1994-06-19 18:00:00 TS 13.7000 -123.700 40 1001 hurdat_epa main 1729 1729 O_____________ hurdat_epa EP011994 13.7000 -123.700 TS 40 1001 0 5 280
1994169N13240 1994 37 EP MM ALETTA 1994-06-19 21:00:00 TS 13.7425 -123.958 main 1751 1743 P_____________ EP011994 13.7425 -123.958 TS 42 1000 0 5 282
1994169N13240 1994 37 EP MM ALETTA 1994-06-20 00:00:00 TS 13.8000 -124.200 45 1000 hurdat_epa main 1758 1758 O_____________ hurdat_epa EP011994 13.8000 -124.200 TS 45 1000 0 5 286
1994169N13240 1994 37 EP MM ALETTA 1994-06-20 03:00:00 TS 13.8774 -124.435 main 1765 1765 P_____________ EP011994 13.8774 -124.435 TS 45 1000 0 5 292
1994169N13240 1994 37 EP MM ALETTA 1994-06-20 06:00:00 TS 14.0000 -124.700 45 1000 hurdat_epa main 1780 1780 O_____________ hurdat_epa EP011994 14.0000 -124.700 TS 45 1000 0 7 296
1994169N13240 1994 37 EP MM ALETTA 1994-06-20 09:00:00 TS 14.1700 -125.043 main 1788 1788 P_____________ EP011994 14.1700 -125.043 TS 45 999 0 8 301
1994169N13240 1994 37 EP MM ALETTA 1994-06-20 12:00:00 TS 14.4000 -125.400 45 999 hurdat_epa main 1804 1804 O_____________ hurdat_epa EP011994 14.4000 -125.400 TS 45 999 0 8 310
1994169N13240 1994 37 EP MM ALETTA 1994-06-20 15:00:00 TS 14.6999 -125.693 main 1806 1799 P_____________ EP011994 14.6999 -125.693 TS 42 1000 0 8 316
1994169N13240 1994 37 EP MM ALETTA 1994-06-20 18:00:00 TS 15.0000 -126.000 40 1001 hurdat_epa main 1809 1809 O_____________ hurdat_epa EP011994 15.0000 -126.000 TS 40 1001 0 8 308
1994169N13240 1994 37 EP MM ALETTA 1994-06-20 21:00:00 TS 15.2150 -126.378 main 1826 1824 P_____________ EP011994 15.2150 -126.378 TS 37 1002 0 9 297
1994169N13240 1994 37 EP MM ALETTA 1994-06-21 00:00:00 TS 15.4000 -126.800 35 1003 hurdat_epa main 1835 1834 O_____________ hurdat_epa EP011994 15.4000 -126.800 TS 35 1003 0 9 295
1994169N13240 1994 37 EP MM ALETTA 1994-06-21 03:00:00 TS 15.6075 -127.243 main 1846 1845 P_____________ EP011994 15.6075 -127.243 TS 35 1004 0 10 295
1994169N13240 1994 37 EP MM ALETTA 1994-06-21 06:00:00 TS 15.8000 -127.700 35 1005 hurdat_epa main 1865 1864 O_____________ hurdat_epa EP011994 15.8000 -127.700 TS 35 1005 0 9 292
1994169N13240 1994 37 EP MM ALETTA 1994-06-21 09:00:00 TS 15.9420 -128.098 main 1886 1878 P_____________ EP011994 15.9420 -128.098 TS 32 1006 -1 9 289
1994169N13240 1994 37 EP MM ALETTA 1994-06-21 12:00:00 TS 16.1000 -128.600 30 1007 hurdat_epa main 1907 1907 O_____________ hurdat_epa EP011994 16.1000 -128.600 TD 30 1007 -1 13 288
1994169N13240 1994 37 EP MM ALETTA 1994-06-21 15:00:00 TS 16.3430 -129.377 main 1953 1945 P_____________ EP011994 16.3430 -129.377 TD 27 1007 -1 16 288
1994169N13240 1994 37 EP MM ALETTA 1994-06-21 18:00:00 TS 16.6000 -130.200 25 1008 hurdat_epa main 1993 1993 O_____________ hurdat_epa EP011994 16.6000 -130.200 TD 25 1008 -1 15 288
1994169N13240 1994 37 EP MM ALETTA 1994-06-21 21:00:00 TS 16.7995 -130.830 main 2027 2027 P_____________ EP011994 16.7995 -130.830 TD 25 1008 -1 12 289
1994169N13240 1994 37 EP MM ALETTA 1994-06-22 00:00:00 TS 17.0000 -131.400 25 1009 hurdat_epa main 2063 2063 O_____________ hurdat_epa EP011994 17.0000 -131.400 TD 25 1009 -1 12 292
1994169N13240 1994 37 EP MM ALETTA 1994-06-22 03:00:00 TS 17.2423 -131.993 main 2100 2093 P_____________ EP011994 17.2423 -131.993 TD 25 1009 -1 13 294
1994169N13240 1994 37 EP MM ALETTA 1994-06-22 06:00:00 TS 17.5000 -132.600 25 1009 hurdat_epa main 2131 2131 O_____________ hurdat_epa EP011994 17.5000 -132.600 TD 25 1009 -1 13 294
1994169N13240 1994 37 EP MM ALETTA 1994-06-22 09:00:00 TS 17.7722 -133.227 main 2164 2164 P_____________ EP011994 17.7722 -133.227 TD 25 1009 -1 13 292
1994169N13240 1994 37 EP MM ALETTA 1994-06-22 12:00:00 TS 18.0000 -133.900 25 1009 hurdat_epa main 2205 2130 O_____________ hurdat_epa EP011994 18.0000 -133.900 TD 25 1009 -1 14 285
1994169N13240 1994 37 EP MM ALETTA 1994-06-22 15:00:00 TS 18.1222 -134.620 main 2130 2045 P_____________ EP011994 18.1222 -134.620 TD 25 1009 -1 14 278
1994169N13240 1994 37 EP MM ALETTA 1994-06-22 18:00:00 TS 18.2000 -135.400 25 1009 hurdat_epa main 2045 1960 O_____________ hurdat_epa EP011994 18.2000 -135.400 TD 25 1009 -1 16 277
1994169N13240 1994 37 EP MM ALETTA 1994-06-22 21:00:00 TS 18.3228 -136.272 main 1949 1864 P_____________ EP011994 18.3228 -136.272 TD 25 1009 -1 16 277
1994169N13240 1994 37 EP MM ALETTA 1994-06-23 00:00:00 TS 18.4000 -137.100 25 1009 hurdat_epa main 1864 1801 O_____________ hurdat_epa EP011994 18.4000 -137.100 TD 25 1009 -1 14 272
1994169N13240 1994 37 EP MM ALETTA 1994-06-23 03:00:00 TS 18.3799 -137.755 main 1791 1740 P_____________ EP011994 18.3799 -137.755 TD 25 1009 -1 11 265
1994169N13240 1994 37 EP MM ALETTA 1994-06-23 06:00:00 TS 18.3000 -138.300 25 1010 hurdat_epa main 1740 O_____________ hurdat_epa EP011994 18.3000 -138.300 TD 25 1010 -1 10 261

IBTrACS Databaseについて

本データベースは、米国NOAAが公開する1842年以降の世界の熱帯低気圧のベストトラックデータアーカイブInternational Best Track Archive for Climate Stewardship (IBTrACS)を、ウェブで閲覧しやすい形式に変換したものです。

最終更新日:2021-10-08